Somerset, Pennsylvania
Current Conditions -  °F | °C
As of 8:15 PM on Thursday 18 Dec 2014 (Local Time) from K2G9 Reporting Station
Overcast Overcast  
Wind Chill: 12°   Ceiling: 800
Heat Index: 23°   Visibility: 10mi
Dew Point: 19°   Wind: 10mph
Humidity: 86%   Direction: 290°WNW
Pressure: 30.05"   Gusts: NA
Location:  40.01°N, 79.08°W
Report Text: K2G9 190115Z AUTO 29009KT 10SM OVC008 M05/M07 A3005 RMK AO2
Loading
Personal Weather Stations






























Interactive Weather Map New forecast layout! Learn more

10-Day Weather Forecast

Advertisements
Track Severe Weather on mobile